sensor_id;sensor_type;location;lat;lon;timestamp;temperature;humidity
3690;DHT22;1861;50.240;8.596;2022-08-19T00:01:45;22.60;93.80
3690;DHT22;1861;50.240;8.596;2022-08-19T00:04:21;22.50;93.80
3690;DHT22;1861;50.240;8.596;2022-08-19T00:06:50;22.60;93.90
3690;DHT22;1861;50.240;8.596;2022-08-19T00:09:19;22.50;94.10
3690;DHT22;1861;50.240;8.596;2022-08-19T00:11:48;22.60;93.80
3690;DHT22;1861;50.240;8.596;2022-08-19T00:14:19;22.60;93.80
3690;DHT22;1861;50.240;8.596;2022-08-19T00:16:49;22.50;93.70
3690;DHT22;1861;50.240;8.596;2022-08-19T00:19:18;22.50;93.70
3690;DHT22;1861;50.240;8.596;2022-08-19T00:21:46;22.50;93.70
3690;DHT22;1861;50.240;8.596;2022-08-19T00:24:14;22.50;93.60
3690;DHT22;1861;50.240;8.596;2022-08-19T00:26:44;22.50;93.60
3690;DHT22;1861;50.240;8.596;2022-08-19T00:29:14;22.50;93.60
3690;DHT22;1861;50.240;8.596;2022-08-19T00:31:44;22.60;93.60
3690;DHT22;1861;50.240;8.596;2022-08-19T00:34:14;22.60;93.50
3690;DHT22;1861;50.240;8.596;2022-08-19T00:36:43;22.50;93.50
3690;DHT22;1861;50.240;8.596;2022-08-19T00:39:12;22.60;93.50
3690;DHT22;1861;50.240;8.596;2022-08-19T00:41:41;22.60;93.50
3690;DHT22;1861;50.240;8.596;2022-08-19T00:44:13;22.60;93.50
3690;DHT22;1861;50.240;8.596;2022-08-19T00:46:44;22.50;93.40
3690;DHT22;1861;50.240;8.596;2022-08-19T00:49:29;22.60;93.40
3690;DHT22;1861;50.240;8.596;2022-08-19T00:52:02;22.60;93.40
3690;DHT22;1861;50.240;8.596;2022-08-19T00:54:31;22.60;93.40
3690;DHT22;1861;50.240;8.596;2022-08-19T00:57:01;22.60;93.40
3690;DHT22;1861;50.240;8.596;2022-08-19T00:59:35;22.60;93.40
3690;DHT22;1861;50.240;8.596;2022-08-19T01:02:27;22.60;93.40
3690;DHT22;1861;50.240;8.596;2022-08-19T01:04:55;22.60;93.30
3690;DHT22;1861;50.240;8.596;2022-08-19T01:07:24;22.60;93.30
3690;DHT22;1861;50.240;8.596;2022-08-19T01:09:52;22.60;93.30
3690;DHT22;1861;50.240;8.596;2022-08-19T01:12:21;22.60;93.30
3690;DHT22;1861;50.240;8.596;2022-08-19T01:14:50;22.60;93.30
3690;DHT22;1861;50.240;8.596;2022-08-19T01:17:19;22.60;93.20
3690;DHT22;1861;50.240;8.596;2022-08-19T01:19:49;22.60;93.10
3690;DHT22;1861;50.240;8.596;2022-08-19T01:22:26;22.60;93.10
3690;DHT22;1861;50.240;8.596;2022-08-19T01:25:00;22.60;93.10
3690;DHT22;1861;50.240;8.596;2022-08-19T01:27:38;22.60;93.00
3690;DHT22;1861;50.240;8.596;2022-08-19T01:30:11;22.60;93.00
3690;DHT22;1861;50.240;8.596;2022-08-19T01:32:40;22.60;93.00
3690;DHT22;1861;50.240;8.596;2022-08-19T01:35:09;22.60;93.00
3690;DHT22;1861;50.240;8.596;2022-08-19T01:37:44;22.70;93.00
3690;DHT22;1861;50.240;8.596;2022-08-19T01:40:13;22.60;92.90
3690;DHT22;1861;50.240;8.596;2022-08-19T01:42:41;22.60;92.90
3690;DHT22;1861;50.240;8.596;2022-08-19T01:45:10;22.70;93.00
3690;DHT22;1861;50.240;8.596;2022-08-19T01:47:38;22.70;93.00
3690;DHT22;1861;50.240;8.596;2022-08-19T01:50:08;22.70;93.00
3690;DHT22;1861;50.240;8.596;2022-08-19T01:52:37;22.70;92.90
3690;DHT22;1861;50.240;8.596;2022-08-19T01:55:10;22.70;92.90
3690;DHT22;1861;50.240;8.596;2022-08-19T01:57:39;22.70;92.90
3690;DHT22;1861;50.240;8.596;2022-08-19T02:00:11;22.60;92.80
3690;DHT22;1861;50.240;8.596;2022-08-19T02:02:41;22.60;92.80
3690;DHT22;1861;50.240;8.596;2022-08-19T02:05:10;22.60;92.80
3690;DHT22;1861;50.240;8.596;2022-08-19T02:07:39;22.60;92.90
3690;DHT22;1861;50.240;8.596;2022-08-19T02:10:14;22.60;92.90
3690;DHT22;1861;50.240;8.596;2022-08-19T02:12:43;22.60;92.80
3690;DHT22;1861;50.240;8.596;2022-08-19T02:15:13;22.60;92.90
3690;DHT22;1861;50.240;8.596;2022-08-19T02:17:42;22.60;92.90
3690;DHT22;1861;50.240;8.596;2022-08-19T02:20:11;22.60;92.90
3690;DHT22;1861;50.240;8.596;2022-08-19T02:22:40;22.60;92.90
3690;DHT22;1861;50.240;8.596;2022-08-19T02:25:11;22.60;93.00
3690;DHT22;1861;50.240;8.596;2022-08-19T02:27:40;22.60;92.90
3690;DHT22;1861;50.240;8.596;2022-08-19T02:30:12;22.60;93.00
3690;DHT22;1861;50.240;8.596;2022-08-19T02:32:42;22.60;93.00
3690;DHT22;1861;50.240;8.596;2022-08-19T02:35:11;22.60;93.00
3690;DHT22;1861;50.240;8.596;2022-08-19T02:37:40;22.60;93.10
3690;DHT22;1861;50.240;8.596;2022-08-19T02:40:28;22.50;93.00
3690;DHT22;1861;50.240;8.596;2022-08-19T02:42:56;22.60;93.00
3690;DHT22;1861;50.240;8.596;2022-08-19T02:45:24;22.50;93.00
3690;DHT22;1861;50.240;8.596;2022-08-19T02:47:52;22.50;93.00
3690;DHT22;1861;50.240;8.596;2022-08-19T02:50:21;22.50;93.00
3690;DHT22;1861;50.240;8.596;2022-08-19T02:52:49;22.50;93.00
3690;DHT22;1861;50.240;8.596;2022-08-19T02:55:18;22.50;93.00
3690;DHT22;1861;50.240;8.596;2022-08-19T02:57:49;22.50;93.00
3690;DHT22;1861;50.240;8.596;2022-08-19T03:00:17;22.50;93.00
3690;DHT22;1861;50.240;8.596;2022-08-19T03:02:45;22.50;93.00
3690;DHT22;1861;50.240;8.596;2022-08-19T03:05:15;22.50;93.00
3690;DHT22;1861;50.240;8.596;2022-08-19T03:07:43;22.50;92.90
3690;DHT22;1861;50.240;8.596;2022-08-19T03:10:12;22.50;93.00
3690;DHT22;1861;50.240;8.596;2022-08-19T03:12:40;22.50;93.00
3690;DHT22;1861;50.240;8.596;2022-08-19T03:15:10;22.50;92.90
3690;DHT22;1861;50.240;8.596;2022-08-19T03:17:38;22.40;93.10
3690;DHT22;1861;50.240;8.596;2022-08-19T03:20:07;22.50;93.00
3690;DHT22;1861;50.240;8.596;2022-08-19T03:22:40;22.50;93.00
3690;DHT22;1861;50.240;8.596;2022-08-19T03:25:09;22.50;93.00
3690;DHT22;1861;50.240;8.596;2022-08-19T03:27:38;22.50;93.00
3690;DHT22;1861;50.240;8.596;2022-08-19T03:30:07;22.50;93.00
3690;DHT22;1861;50.240;8.596;2022-08-19T03:32:38;22.40;92.90
3690;DHT22;1861;50.240;8.596;2022-08-19T03:35:11;22.40;93.00
3690;DHT22;1861;50.240;8.596;2022-08-19T03:37:39;22.40;93.00
3690;DHT22;1861;50.240;8.596;2022-08-19T03:40:08;22.40;92.90
3690;DHT22;1861;50.240;8.596;2022-08-19T03:42:42;22.40;92.90
3690;DHT22;1861;50.240;8.596;2022-08-19T03:45:23;22.40;93.00
3690;DHT22;1861;50.240;8.596;2022-08-19T03:47:52;22.40;92.90
3690;DHT22;1861;50.240;8.596;2022-08-19T03:50:20;22.40;92.90
3690;DHT22;1861;50.240;8.596;2022-08-19T03:52:49;22.40;92.80
3690;DHT22;1861;50.240;8.596;2022-08-19T03:55:18;22.40;92.90
3690;DHT22;1861;50.240;8.596;2022-08-19T03:57:47;22.40;92.80
3690;DHT22;1861;50.240;8.596;2022-08-19T04:00:16;22.40;92.80
3690;DHT22;1861;50.240;8.596;2022-08-19T04:02:44;22.40;92.80
3690;DHT22;1861;50.240;8.596;2022-08-19T04:05:28;22.40;92.70
3690;DHT22;1861;50.240;8.596;2022-08-19T04:07:57;22.40;92.70
3690;DHT22;1861;50.240;8.596;2022-08-19T04:10:26;22.40;92.60
3690;DHT22;1861;50.240;8.596;2022-08-19T04:12:54;22.30;92.60
3690;DHT22;1861;50.240;8.596;2022-08-19T04:15:23;22.30;92.70
3690;DHT22;1861;50.240;8.596;2022-08-19T04:17:51;22.30;92.60
3690;DHT22;1861;50.240;8.596;2022-08-19T04:20:19;22.30;92.60
3690;DHT22;1861;50.240;8.596;2022-08-19T04:22:49;22.20;92.60
3690;DHT22;1861;50.240;8.596;2022-08-19T04:25:17;22.30;92.70
3690;DHT22;1861;50.240;8.596;2022-08-19T04:27:45;22.30;93.00
3690;DHT22;1861;50.240;8.596;2022-08-19T04:30:15;22.30;92.60
3690;DHT22;1861;50.240;8.596;2022-08-19T04:32:44;22.30;92.70
3690;DHT22;1861;50.240;8.596;2022-08-19T04:35:12;22.30;92.70
3690;DHT22;1861;50.240;8.596;2022-08-19T04:37:45;22.30;92.70
3690;DHT22;1861;50.240;8.596;2022-08-19T04:40:15;22.40;92.80
3690;DHT22;1861;50.240;8.596;2022-08-19T04:43:10;22.30;92.80
3690;DHT22;1861;50.240;8.596;2022-08-19T04:45:38;22.30;92.70
3690;DHT22;1861;50.240;8.596;2022-08-19T04:48:10;22.30;92.70
3690;DHT22;1861;50.240;8.596;2022-08-19T04:50:53;22.20;92.80
3690;DHT22;1861;50.240;8.596;2022-08-19T04:53:24;22.20;92.80
3690;DHT22;1861;50.240;8.596;2022-08-19T04:56:07;22.20;92.80
3690;DHT22;1861;50.240;8.596;2022-08-19T04:58:37;22.20;92.80
3690;DHT22;1861;50.240;8.596;2022-08-19T05:01:06;22.20;92.80
3690;DHT22;1861;50.240;8.596;2022-08-19T05:03:35;22.30;92.90
3690;DHT22;1861;50.240;8.596;2022-08-19T05:06:06;22.20;92.80
3690;DHT22;1861;50.240;8.596;2022-08-19T05:08:36;22.20;92.90
3690;DHT22;1861;50.240;8.596;2022-08-19T05:11:10;22.20;92.90
3690;DHT22;1861;50.240;8.596;2022-08-19T05:13:40;22.20;92.90
3690;DHT22;1861;50.240;8.596;2022-08-19T05:16:10;22.20;92.90
3690;DHT22;1861;50.240;8.596;2022-08-19T05:18:39;22.20;92.80
3690;DHT22;1861;50.240;8.596;2022-08-19T05:21:25;22.30;92.90
3690;DHT22;1861;50.240;8.596;2022-08-19T05:24:12;22.30;92.90
3690;DHT22;1861;50.240;8.596;2022-08-19T05:26:44;22.30;92.90
3690;DHT22;1861;50.240;8.596;2022-08-19T05:29:14;22.30;92.90
3690;DHT22;1861;50.240;8.596;2022-08-19T05:31:43;22.30;92.80
3690;DHT22;1861;50.240;8.596;2022-08-19T05:34:12;22.40;92.90
3690;DHT22;1861;50.240;8.596;2022-08-19T05:36:46;22.40;92.90
3690;DHT22;1861;50.240;8.596;2022-08-19T05:39:17;22.40;92.90
3690;DHT22;1861;50.240;8.596;2022-08-19T05:41:48;22.40;93.00
3690;DHT22;1861;50.240;8.596;2022-08-19T05:44:17;22.40;93.00
3690;DHT22;1861;50.240;8.596;2022-08-19T05:46:47;22.40;93.00
3690;DHT22;1861;50.240;8.596;2022-08-19T05:49:15;22.40;93.10
3690;DHT22;1861;50.240;8.596;2022-08-19T05:51:43;22.40;93.00
3690;DHT22;1861;50.240;8.596;2022-08-19T05:54:12;22.40;93.00
3690;DHT22;1861;50.240;8.596;2022-08-19T05:56:42;22.50;93.00
3690;DHT22;1861;50.240;8.596;2022-08-19T05:59:11;22.40;93.00
3690;DHT22;1861;50.240;8.596;2022-08-19T06:01:41;22.40;93.10
3690;DHT22;1861;50.240;8.596;2022-08-19T06:04:10;22.50;93.00
3690;DHT22;1861;50.240;8.596;2022-08-19T06:06:38;22.50;93.00
3690;DHT22;1861;50.240;8.596;2022-08-19T06:09:07;22.50;93.00
3690;DHT22;1861;50.240;8.596;2022-08-19T06:11:38;22.50;92.90
3690;DHT22;1861;50.240;8.596;2022-08-19T06:14:08;22.50;92.90
3690;DHT22;1861;50.240;8.596;2022-08-19T06:16:44;22.50;93.00
3690;DHT22;1861;50.240;8.596;2022-08-19T06:19:14;22.50;92.90
3690;DHT22;1861;50.240;8.596;2022-08-19T06:21:45;22.60;92.90
3690;DHT22;1861;50.240;8.596;2022-08-19T06:24:17;22.60;92.90
3690;DHT22;1861;50.240;8.596;2022-08-19T06:26:47;22.60;92.90
3690;DHT22;1861;50.240;8.596;2022-08-19T06:29:17;22.60;92.90
3690;DHT22;1861;50.240;8.596;2022-08-19T06:31:52;22.60;92.90
3690;DHT22;1861;50.240;8.596;2022-08-19T06:34:21;22.60;92.80
3690;DHT22;1861;50.240;8.596;2022-08-19T06:36:51;22.60;92.80
3690;DHT22;1861;50.240;8.596;2022-08-19T06:39:22;22.70;92.80
3690;DHT22;1861;50.240;8.596;2022-08-19T06:41:53;22.70;92.80
3690;DHT22;1861;50.240;8.596;2022-08-19T06:44:30;22.70;92.80
3690;DHT22;1861;50.240;8.596;2022-08-19T06:47:16;22.70;92.80
3690;DHT22;1861;50.240;8.596;2022-08-19T06:49:54;22.70;92.80
3690;DHT22;1861;50.240;8.596;2022-08-19T06:52:29;22.70;92.70
3690;DHT22;1861;50.240;8.596;2022-08-19T06:55:00;22.70;92.60
3690;DHT22;1861;50.240;8.596;2022-08-19T06:57:32;22.70;92.50
3690;DHT22;1861;50.240;8.596;2022-08-19T07:00:01;22.70;92.50
3690;DHT22;1861;50.240;8.596;2022-08-19T07:02:31;22.70;92.50
3690;DHT22;1861;50.240;8.596;2022-08-19T07:04:59;22.80;92.50
3690;DHT22;1861;50.240;8.596;2022-08-19T07:07:32;22.80;92.50
3690;DHT22;1861;50.240;8.596;2022-08-19T07:10:03;22.80;92.40
3690;DHT22;1861;50.240;8.596;2022-08-19T07:12:33;22.80;92.40
3690;DHT22;1861;50.240;8.596;2022-08-19T07:15:05;22.90;92.40
3690;DHT22;1861;50.240;8.596;2022-08-19T07:17:37;22.80;92.30
3690;DHT22;1861;50.240;8.596;2022-08-19T07:20:08;22.90;92.40
3690;DHT22;1861;50.240;8.596;2022-08-19T07:22:37;22.90;92.40
3690;DHT22;1861;50.240;8.596;2022-08-19T07:25:06;22.90;92.30
3690;DHT22;1861;50.240;8.596;2022-08-19T07:27:35;22.90;92.30
3690;DHT22;1861;50.240;8.596;2022-08-19T07:30:06;22.90;92.30
3690;DHT22;1861;50.240;8.596;2022-08-19T07:32:39;22.90;92.20
3690;DHT22;1861;50.240;8.596;2022-08-19T07:35:09;22.90;92.30
3690;DHT22;1861;50.240;8.596;2022-08-19T07:37:37;23.00;92.30
3690;DHT22;1861;50.240;8.596;2022-08-19T07:40:11;23.00;92.20
3690;DHT22;1861;50.240;8.596;2022-08-19T07:42:40;23.00;92.10
3690;DHT22;1861;50.240;8.596;2022-08-19T07:45:08;23.00;92.10
3690;DHT22;1861;50.240;8.596;2022-08-19T07:47:38;23.00;92.10
3690;DHT22;1861;50.240;8.596;2022-08-19T07:50:18;23.00;92.00
3690;DHT22;1861;50.240;8.596;2022-08-19T07:52:48;23.10;92.00
3690;DHT22;1861;50.240;8.596;2022-08-19T07:55:19;23.10;92.10
3690;DHT22;1861;50.240;8.596;2022-08-19T07:58:07;23.00;92.10
3690;DHT22;1861;50.240;8.596;2022-08-19T08:00:36;23.10;92.00
3690;DHT22;1861;50.240;8.596;2022-08-19T08:03:05;23.10;92.10
3690;DHT22;1861;50.240;8.596;2022-08-19T08:05:35;23.10;92.10
3690;DHT22;1861;50.240;8.596;2022-08-19T08:08:35;23.10;92.00
3690;DHT22;1861;50.240;8.596;2022-08-19T08:11:21;23.10;92.10
3690;DHT22;1861;50.240;8.596;2022-08-19T08:13:50;23.20;92.20
3690;DHT22;1861;50.240;8.596;2022-08-19T08:16:27;23.20;92.30
3690;DHT22;1861;50.240;8.596;2022-08-19T08:18:59;23.10;92.20
3690;DHT22;1861;50.240;8.596;2022-08-19T08:21:27;23.20;92.10
3690;DHT22;1861;50.240;8.596;2022-08-19T08:23:56;23.20;92.10
3690;DHT22;1861;50.240;8.596;2022-08-19T08:26:29;23.20;92.00
3690;DHT22;1861;50.240;8.596;2022-08-19T08:29:00;23.20;92.00
3690;DHT22;1861;50.240;8.596;2022-08-19T08:31:39;23.20;92.20
3690;DHT22;1861;50.240;8.596;2022-08-19T08:34:10;23.20;92.00
3690;DHT22;1861;50.240;8.596;2022-08-19T08:36:41;23.30;92.10
3690;DHT22;1861;50.240;8.596;2022-08-19T08:39:10;23.30;92.10
3690;DHT22;1861;50.240;8.596;2022-08-19T08:41:44;23.30;92.20
3690;DHT22;1861;50.240;8.596;2022-08-19T08:44:17;23.30;92.20
3690;DHT22;1861;50.240;8.596;2022-08-19T08:46:51;23.30;92.30
3690;DHT22;1861;50.240;8.596;2022-08-19T08:49:29;23.30;92.40
3690;DHT22;1861;50.240;8.596;2022-08-19T08:52:03;23.30;92.20
3690;DHT22;1861;50.240;8.596;2022-08-19T08:54:35;23.30;92.10
3690;DHT22;1861;50.240;8.596;2022-08-19T08:57:10;23.30;92.20
3690;DHT22;1861;50.240;8.596;2022-08-19T08:59:42;23.40;92.30
3690;DHT22;1861;50.240;8.596;2022-08-19T09:02:11;23.40;92.30
3690;DHT22;1861;50.240;8.596;2022-08-19T09:04:40;23.40;92.30
3690;DHT22;1861;50.240;8.596;2022-08-19T09:07:20;23.40;92.20
3690;DHT22;1861;50.240;8.596;2022-08-19T09:10:10;23.40;92.20
3690;DHT22;1861;50.240;8.596;2022-08-19T09:12:49;23.40;92.30
3690;DHT22;1861;50.240;8.596;2022-08-19T09:15:27;23.40;92.30
3690;DHT22;1861;50.240;8.596;2022-08-19T09:18:00;23.40;92.30
3690;DHT22;1861;50.240;8.596;2022-08-19T09:20:34;23.40;92.20
3690;DHT22;1861;50.240;8.596;2022-08-19T09:23:07;23.40;92.30
3690;DHT22;1861;50.240;8.596;2022-08-19T09:25:36;23.40;92.20
3690;DHT22;1861;50.240;8.596;2022-08-19T09:28:04;23.50;92.20
3690;DHT22;1861;50.240;8.596;2022-08-19T09:30:48;23.50;92.20
3690;DHT22;1861;50.240;8.596;2022-08-19T09:33:18;23.50;92.20
3690;DHT22;1861;50.240;8.596;2022-08-19T09:35:48;23.50;92.40
3690;DHT22;1861;50.240;8.596;2022-08-19T09:38:19;23.60;92.40
3690;DHT22;1861;50.240;8.596;2022-08-19T09:40:48;23.60;92.40
3690;DHT22;1861;50.240;8.596;2022-08-19T09:43:17;23.60;92.40
3690;DHT22;1861;50.240;8.596;2022-08-19T09:45:59;23.60;92.30
3690;DHT22;1861;50.240;8.596;2022-08-19T09:48:27;23.60;92.20
3690;DHT22;1861;50.240;8.596;2022-08-19T09:51:04;23.60;92.10
3690;DHT22;1861;50.240;8.596;2022-08-19T09:53:38;23.70;92.20
3690;DHT22;1861;50.240;8.596;2022-08-19T09:56:06;23.60;92.00
3690;DHT22;1861;50.240;8.596;2022-08-19T09:58:36;23.70;92.00
3690;DHT22;1861;50.240;8.596;2022-08-19T10:01:05;23.70;92.00
3690;DHT22;1861;50.240;8.596;2022-08-19T10:03:35;23.70;92.00
3690;DHT22;1861;50.240;8.596;2022-08-19T10:06:05;23.70;92.10
3690;DHT22;1861;50.240;8.596;2022-08-19T10:08:43;23.70;92.10
3690;DHT22;1861;50.240;8.596;2022-08-19T10:11:17;23.80;92.20
3690;DHT22;1861;50.240;8.596;2022-08-19T10:14:02;23.80;92.10
3690;DHT22;1861;50.240;8.596;2022-08-19T10:16:32;23.80;92.00
3690;DHT22;1861;50.240;8.596;2022-08-19T10:19:05;23.80;92.00
3690;DHT22;1861;50.240;8.596;2022-08-19T10:21:35;23.80;91.90
3690;DHT22;1861;50.240;8.596;2022-08-19T10:24:06;23.80;92.00
3690;DHT22;1861;50.240;8.596;2022-08-19T10:26:39;23.80;92.00
3690;DHT22;1861;50.240;8.596;2022-08-19T10:29:08;23.80;92.00
3690;DHT22;1861;50.240;8.596;2022-08-19T10:31:38;23.70;92.00
3690;DHT22;1861;50.240;8.596;2022-08-19T10:34:27;23.70;91.80
3690;DHT22;1861;50.240;8.596;2022-08-19T10:36:58;23.70;91.70
3690;DHT22;1861;50.240;8.596;2022-08-19T10:39:28;23.80;91.70
3690;DHT22;1861;50.240;8.596;2022-08-19T10:41:58;23.80;91.70
3690;DHT22;1861;50.240;8.596;2022-08-19T10:44:27;23.90;91.50
3690;DHT22;1861;50.240;8.596;2022-08-19T10:46:59;23.90;91.60
3690;DHT22;1861;50.240;8.596;2022-08-19T10:49:27;23.90;91.50
3690;DHT22;1861;50.240;8.596;2022-08-19T10:51:56;24.00;91.40
3690;DHT22;1861;50.240;8.596;2022-08-19T10:54:47;24.00;91.40
3690;DHT22;1861;50.240;8.596;2022-08-19T10:57:35;23.90;91.30
3690;DHT22;1861;50.240;8.596;2022-08-19T11:00:24;23.90;91.20
3690;DHT22;1861;50.240;8.596;2022-08-19T11:02:52;23.90;91.40
3690;DHT22;1861;50.240;8.596;2022-08-19T11:05:20;23.80;91.30
3690;DHT22;1861;50.240;8.596;2022-08-19T11:07:51;24.00;91.20
3690;DHT22;1861;50.240;8.596;2022-08-19T11:10:20;24.10;91.10
3690;DHT22;1861;50.240;8.596;2022-08-19T11:12:48;24.10;91.00
3690;DHT22;1861;50.240;8.596;2022-08-19T11:15:21;24.20;91.00
3690;DHT22;1861;50.240;8.596;2022-08-19T11:17:49;24.30;90.90
3690;DHT22;1861;50.240;8.596;2022-08-19T11:20:21;24.30;90.80
3690;DHT22;1861;50.240;8.596;2022-08-19T11:22:52;24.40;90.80
3690;DHT22;1861;50.240;8.596;2022-08-19T11:25:21;24.30;90.90
3690;DHT22;1861;50.240;8.596;2022-08-19T11:27:49;24.30;90.90
3690;DHT22;1861;50.240;8.596;2022-08-19T11:30:19;24.40;90.60
3690;DHT22;1861;50.240;8.596;2022-08-19T11:32:47;24.50;90.50
3690;DHT22;1861;50.240;8.596;2022-08-19T11:35:16;24.50;90.30
3690;DHT22;1861;50.240;8.596;2022-08-19T11:37:47;24.60;90.30
3690;DHT22;1861;50.240;8.596;2022-08-19T11:40:16;24.70;90.10
3690;DHT22;1861;50.240;8.596;2022-08-19T11:42:44;24.70;90.10
3690;DHT22;1861;50.240;8.596;2022-08-19T11:45:26;24.80;90.10
3690;DHT22;1861;50.240;8.596;2022-08-19T11:47:55;24.80;90.20
3690;DHT22;1861;50.240;8.596;2022-08-19T11:50:24;24.90;90.20
3690;DHT22;1861;50.240;8.596;2022-08-19T11:52:54;24.90;90.20
3690;DHT22;1861;50.240;8.596;2022-08-19T11:55:24;25.00;90.00
3690;DHT22;1861;50.240;8.596;2022-08-19T11:57:52;24.90;89.90
3690;DHT22;1861;50.240;8.596;2022-08-19T12:00:20;25.00;90.00
3690;DHT22;1861;50.240;8.596;2022-08-19T12:02:48;24.90;89.60
3690;DHT22;1861;50.240;8.596;2022-08-19T12:05:16;24.60;89.80
3690;DHT22;1861;50.240;8.596;2022-08-19T12:07:45;24.70;89.20
3690;DHT22;1861;50.240;8.596;2022-08-19T12:10:13;24.80;89.10
3690;DHT22;1861;50.240;8.596;2022-08-19T12:12:46;24.90;89.30
3690;DHT22;1861;50.240;8.596;2022-08-19T12:15:25;24.90;89.40
3690;DHT22;1861;50.240;8.596;2022-08-19T12:18:03;24.90;89.30
3690;DHT22;1861;50.240;8.596;2022-08-19T12:20:34;24.80;88.90
3690;DHT22;1861;50.240;8.596;2022-08-19T12:23:03;24.60;89.30
3690;DHT22;1861;50.240;8.596;2022-08-19T12:25:32;24.50;89.40
3690;DHT22;1861;50.240;8.596;2022-08-19T12:28:03;24.50;89.70
3690;DHT22;1861;50.240;8.596;2022-08-19T12:30:31;24.70;89.50
3690;DHT22;1861;50.240;8.596;2022-08-19T12:32:59;24.70;89.30
3690;DHT22;1861;50.240;8.596;2022-08-19T12:35:27;24.70;88.90
3690;DHT22;1861;50.240;8.596;2022-08-19T12:37:57;24.80;88.70
3690;DHT22;1861;50.240;8.596;2022-08-19T12:40:25;24.80;88.30
3690;DHT22;1861;50.240;8.596;2022-08-19T12:42:54;24.70;88.40
3690;DHT22;1861;50.240;8.596;2022-08-19T12:45:23;24.80;88.10
3690;DHT22;1861;50.240;8.596;2022-08-19T12:47:52;24.70;87.70
3690;DHT22;1861;50.240;8.596;2022-08-19T12:50:21;24.70;87.80
3690;DHT22;1861;50.240;8.596;2022-08-19T12:52:49;24.50;87.90
3690;DHT22;1861;50.240;8.596;2022-08-19T12:55:18;24.60;87.90
3690;DHT22;1861;50.240;8.596;2022-08-19T12:57:46;24.50;88.10
3690;DHT22;1861;50.240;8.596;2022-08-19T13:00:17;24.50;88.10
3690;DHT22;1861;50.240;8.596;2022-08-19T13:02:50;24.60;87.70
3690;DHT22;1861;50.240;8.596;2022-08-19T13:05:21;24.60;87.90
3690;DHT22;1861;50.240;8.596;2022-08-19T13:07:51;24.50;88.50
3690;DHT22;1861;50.240;8.596;2022-08-19T13:10:23;24.50;88.70
3690;DHT22;1861;50.240;8.596;2022-08-19T13:12:52;24.50;88.80
3690;DHT22;1861;50.240;8.596;2022-08-19T13:15:22;24.50;88.40
3690;DHT22;1861;50.240;8.596;2022-08-19T13:17:52;24.40;88.20
3690;DHT22;1861;50.240;8.596;2022-08-19T13:20:22;24.40;88.20
3690;DHT22;1861;50.240;8.596;2022-08-19T13:22:51;24.50;88.40
3690;DHT22;1861;50.240;8.596;2022-08-19T13:25:19;24.50;88.40
3690;DHT22;1861;50.240;8.596;2022-08-19T13:27:48;24.50;88.20
3690;DHT22;1861;50.240;8.596;2022-08-19T13:30:19;24.40;88.50
3690;DHT22;1861;50.240;8.596;2022-08-19T13:33:06;24.40;88.40
3690;DHT22;1861;50.240;8.596;2022-08-19T13:35:45;24.30;87.60
3690;DHT22;1861;50.240;8.596;2022-08-19T13:38:16;24.30;87.40
3690;DHT22;1861;50.240;8.596;2022-08-19T13:40:45;24.30;87.20
3690;DHT22;1861;50.240;8.596;2022-08-19T13:43:14;24.40;87.00
3690;DHT22;1861;50.240;8.596;2022-08-19T13:45:50;24.40;87.10
3690;DHT22;1861;50.240;8.596;2022-08-19T13:48:25;24.40;87.70
3690;DHT22;1861;50.240;8.596;2022-08-19T13:50:54;24.30;87.90
3690;DHT22;1861;50.240;8.596;2022-08-19T13:53:22;24.30;88.00
3690;DHT22;1861;50.240;8.596;2022-08-19T13:55:51;24.30;88.10
3690;DHT22;1861;50.240;8.596;2022-08-19T13:58:20;24.30;88.30
3690;DHT22;1861;50.240;8.596;2022-08-19T14:00:49;24.30;88.20
3690;DHT22;1861;50.240;8.596;2022-08-19T14:03:17;24.30;87.80
3690;DHT22;1861;50.240;8.596;2022-08-19T14:05:47;24.30;87.80
3690;DHT22;1861;50.240;8.596;2022-08-19T14:08:15;24.30;87.60
3690;DHT22;1861;50.240;8.596;2022-08-19T14:10:43;24.30;87.60
3690;DHT22;1861;50.240;8.596;2022-08-19T14:13:14;24.30;86.90
3690;DHT22;1861;50.240;8.596;2022-08-19T14:15:42;24.30;87.20
3690;DHT22;1861;50.240;8.596;2022-08-19T14:18:11;24.30;87.10
3690;DHT22;1861;50.240;8.596;2022-08-19T14:20:39;24.30;87.20
3690;DHT22;1861;50.240;8.596;2022-08-19T14:23:09;24.30;87.20
3690;DHT22;1861;50.240;8.596;2022-08-19T14:25:37;24.30;86.90
3690;DHT22;1861;50.240;8.596;2022-08-19T14:28:06;24.30;86.50
3690;DHT22;1861;50.240;8.596;2022-08-19T14:30:35;24.30;86.90
3690;DHT22;1861;50.240;8.596;2022-08-19T14:33:05;24.30;86.90
3690;DHT22;1861;50.240;8.596;2022-08-19T14:35:35;24.30;86.90
3690;DHT22;1861;50.240;8.596;2022-08-19T14:38:05;24.30;87.00
3690;DHT22;1861;50.240;8.596;2022-08-19T14:40:35;24.40;87.60
3690;DHT22;1861;50.240;8.596;2022-08-19T14:43:04;24.30;87.70
3690;DHT22;1861;50.240;8.596;2022-08-19T14:45:35;24.30;87.60
3690;DHT22;1861;50.240;8.596;2022-08-19T14:48:04;24.30;87.80
3690;DHT22;1861;50.240;8.596;2022-08-19T14:50:34;24.40;87.70
3690;DHT22;1861;50.240;8.596;2022-08-19T14:53:05;24.30;87.40
3690;DHT22;1861;50.240;8.596;2022-08-19T14:55:43;24.40;87.80
3690;DHT22;1861;50.240;8.596;2022-08-19T14:58:12;24.30;87.50
3690;DHT22;1861;50.240;8.596;2022-08-19T15:00:57;24.40;87.30
3690;DHT22;1861;50.240;8.596;2022-08-19T15:03:26;24.30;87.70
3690;DHT22;1861;50.240;8.596;2022-08-19T15:05:54;24.30;87.70
3690;DHT22;1861;50.240;8.596;2022-08-19T15:08:23;24.30;88.00
3690;DHT22;1861;50.240;8.596;2022-08-19T15:10:55;24.30;87.80
3690;DHT22;1861;50.240;8.596;2022-08-19T15:13:24;24.40;88.10
3690;DHT22;1861;50.240;8.596;2022-08-19T15:15:53;24.30;87.80
3690;DHT22;1861;50.240;8.596;2022-08-19T15:18:22;24.30;87.80
3690;DHT22;1861;50.240;8.596;2022-08-19T15:20:50;24.30;88.20
3690;DHT22;1861;50.240;8.596;2022-08-19T15:23:19;24.30;88.30
3690;DHT22;1861;50.240;8.596;2022-08-19T15:25:48;24.40;88.60
3690;DHT22;1861;50.240;8.596;2022-08-19T15:28:20;24.30;88.40
3690;DHT22;1861;50.240;8.596;2022-08-19T15:30:48;24.30;88.30
3690;DHT22;1861;50.240;8.596;2022-08-19T15:33:18;24.30;88.50
3690;DHT22;1861;50.240;8.596;2022-08-19T15:35:47;24.30;88.30
3690;DHT22;1861;50.240;8.596;2022-08-19T15:38:18;24.30;88.30
3690;DHT22;1861;50.240;8.596;2022-08-19T15:40:49;24.30;88.10
3690;DHT22;1861;50.240;8.596;2022-08-19T15:43:19;24.30;88.10
3690;DHT22;1861;50.240;8.596;2022-08-19T15:45:48;24.30;87.90
3690;DHT22;1861;50.240;8.596;2022-08-19T15:48:17;24.40;88.30
3690;DHT22;1861;50.240;8.596;2022-08-19T15:50:45;24.30;88.10
3690;DHT22;1861;50.240;8.596;2022-08-19T15:53:13;24.30;88.20
3690;DHT22;1861;50.240;8.596;2022-08-19T15:55:42;24.30;88.80
3690;DHT22;1861;50.240;8.596;2022-08-19T15:58:13;24.30;88.10
3690;DHT22;1861;50.240;8.596;2022-08-19T16:01:04;24.30;88.10
3690;DHT22;1861;50.240;8.596;2022-08-19T16:04:06;24.30;88.80
3690;DHT22;1861;50.240;8.596;2022-08-19T16:06:55;24.30;88.00
3690;DHT22;1861;50.240;8.596;2022-08-19T16:09:26;24.40;88.60
3690;DHT22;1861;50.240;8.596;2022-08-19T16:11:56;24.30;88.10
3690;DHT22;1861;50.240;8.596;2022-08-19T16:14:29;24.30;88.30
3690;DHT22;1861;50.240;8.596;2022-08-19T16:16:59;24.30;88.10
3690;DHT22;1861;50.240;8.596;2022-08-19T16:19:27;24.30;88.20
3690;DHT22;1861;50.240;8.596;2022-08-19T16:21:56;24.30;88.30
3690;DHT22;1861;50.240;8.596;2022-08-19T16:24:26;24.30;88.30
3690;DHT22;1861;50.240;8.596;2022-08-19T16:26:55;24.30;88.30
3690;DHT22;1861;50.240;8.596;2022-08-19T16:29:24;24.30;88.40